Time;durP1;ratioP1;P1;durP2;ratioP2;P2;SDS_P1;SDS_P2;PMS_P1;PMS_P2;Temp;Humidity;BMP_temperature;BMP_pressure;BME280_temperature;BME280_humidity;BME280_pressure;Samples;Min_cycle;Max_cycle;Signal;HPM_P1;HPM_P2
2021/04/27 00:01:23;;;;;;;6.88;1.05;;;;;;;4.79;51.93;101424.97;6246009;28;20050;-74
2021/04/27 00:04:24;;;;;;;3.00;0.90;;;;;;;4.78;51.91;101419.78;6245887;28;20045;-73
2021/04/27 00:07:25;;;;;;;1.75;0.80;;;;;;;4.62;52.71;101421.81;6246000;28;20128;-73
2021/04/27 00:10:27;;;;;;;9.18;1.20;;;;;;;4.54;52.71;101423.69;6245896;28;20497;-76
2021/04/27 00:13:28;;;;;;;3.33;1.15;;;;;;;4.65;51.62;101423.50;6245584;28;20041;-73
2021/04/27 00:16:29;;;;;;;4.68;1.30;;;;;;;4.61;51.52;101421.84;6246107;28;20054;-76
2021/04/27 00:19:29;;;;;;;2.40;1.02;;;;;;;4.52;53.73;101415.91;6247431;28;20056;-76
2021/04/27 00:22:32;;;;;;;2.15;1.10;;;;;;;4.51;52.92;101421.16;6250533;28;20053;-76
2021/04/27 00:25:33;;;;;;;3.53;1.10;;;;;;;4.56;52.10;101420.19;6249991;28;20046;-76
2021/04/27 00:28:34;;;;;;;2.45;1.23;;;;;;;4.56;52.94;101416.72;6250032;28;20518;-73
2021/04/27 00:31:35;;;;;;;2.47;1.25;;;;;;;4.53;53.35;101411.56;6250232;28;20053;-75
2021/04/27 00:34:36;;;;;;;2.75;1.17;;;;;;;4.42;52.65;101413.50;6249629;28;20049;-76
2021/04/27 00:37:38;;;;;;;1.67;1.10;;;;;;;4.27;53.66;101410.28;6250078;28;20429;-73
2021/04/27 00:40:39;;;;;;;4.57;1.05;;;;;;;4.29;53.65;101420.66;6249743;28;20497;-76
2021/04/27 00:43:40;;;;;;;3.10;1.10;;;;;;;4.27;53.17;101412.88;6249858;28;20061;-76
2021/04/27 00:46:41;;;;;;;2.08;0.90;;;;;;;4.32;52.71;101413.66;6249738;28;20053;-76
2021/04/27 00:49:42;;;;;;;4.82;0.98;;;;;;;4.27;54.64;101414.59;6249781;28;20103;-76
2021/04/27 00:52:45;;;;;;;4.28;1.13;;;;;;;4.31;54.64;101411.06;6249404;28;20460;-75
2021/04/27 00:55:46;;;;;;;2.20;1.05;;;;;;;4.36;53.95;101408.38;6249528;28;20050;-76
2021/04/27 00:58:47;;;;;;;4.60;2.28;;;;;;;4.29;54.04;101405.03;6249458;28;20566;-76
2021/04/27 01:01:48;;;;;;;5.78;1.20;;;;;;;4.26;53.07;101403.34;6249369;28;20049;-76
2021/04/27 01:04:49;;;;;;;2.08;1.10;;;;;;;4.15;54.00;101394.84;6249167;28;20053;-76
2021/04/27 01:07:56;;;;;;;4.28;1.90;;;;;;;4.15;53.07;101396.59;6249045;28;20049;-76
2021/04/27 01:11:06;;;;;;;1.33;0.90;;;;;;;4.09;54.24;101394.97;6249351;28;20068;-76
2021/04/27 01:14:11;;;;;;;2.63;1.00;;;;;;;4.01;54.39;101387.28;6248892;28;20046;-76
2021/04/27 01:17:15;;;;;;;3.75;1.23;;;;;;;4.01;54.92;101387.28;6249137;28;20060;-73
2021/04/27 01:20:19;;;;;;;5.40;1.10;;;;;;;4.10;53.83;101390.63;6248890;28;20065;-73
2021/04/27 01:23:46;;;;;;;4.50;1.20;;;;;;;3.97;53.75;101392.56;6248822;28;20188;-76
2021/04/27 01:26:51;;;;;;;7.43;1.15;;;;;;;4.00;54.71;101390.78;6248739;28;20107;-76
2021/04/27 01:29:52;;;;;;;2.33;1.20;;;;;;;3.89;55.04;101387.47;6249169;28;20045;-75
2021/04/27 01:32:54;;;;;;;3.15;0.90;;;;;;;3.96;54.74;101385.66;6248300;28;20409;-76
2021/04/27 01:35:56;;;;;;;2.20;0.90;;;;;;;3.93;55.55;101383.94;6248733;28;20054;-76
2021/04/27 01:38:57;;;;;;;4.03;1.10;;;;;;;3.90;54.60;101385.72;6248447;28;20050;-76
2021/04/27 01:42:01;;;;;;;3.45;1.17;;;;;;;3.83;54.93;101386.72;6248564;28;20052;-76
2021/04/27 01:45:02;;;;;;;7.22;1.30;;;;;;;3.78;55.25;101384.19;6248155;28;20053;-76
2021/04/27 01:48:04;;;;;;;5.25;0.73;;;;;;;3.61;54.91;101373.19;6248410;28;20049;-76
2021/04/27 01:51:09;;;;;;;1.63;0.95;;;;;;;3.58;55.86;101373.22;6248174;28;20049;-76
2021/04/27 01:54:10;;;;;;;1.63;0.82;;;;;;;3.60;54.78;101374.91;6248072;28;20041;-76
2021/04/27 01:57:12;;;;;;;3.25;1.00;;;;;;;3.58;55.75;101373.22;6248062;28;20045;-76
2021/04/27 02:00:17;;;;;;;2.25;1.10;;;;;;;3.51;55.97;101375.06;6247882;28;20057;-76
2021/04/27 02:03:18;;;;;;;1.63;1.10;;;;;;;3.53;56.03;101368.06;6247655;28;20041;-76
2021/04/27 02:06:19;;;;;;;4.72;1.15;;;;;;;3.43;55.93;101369.94;6247839;28;20107;-76
2021/04/27 02:09:22;;;;;;;1.88;1.10;;;;;;;3.37;56.25;101376.97;6247838;28;20049;-75
2021/04/27 02:12:27;;;;;;;2.17;0.98;;;;;;;3.30;56.69;101373.59;6247630;28;20410;-75
2021/04/27 02:15:29;;;;;;;5.80;1.30;;;;;;;3.30;56.27;101368.41;6247958;28;20046;-75
2021/04/27 02:18:34;;;;;;;5.18;1.30;;;;;;;3.31;56.62;101370.97;6247472;28;20061;-75
2021/04/27 02:21:37;;;;;;;2.83;1.05;;;;;;;3.47;56.33;101363.84;6247697;28;20049;-76
2021/04/27 02:24:39;;;;;;;4.18;0.80;;;;;;;3.55;56.07;101367.19;6247181;28;20045;-76
2021/04/27 02:27:42;;;;;;;3.33;0.98;;;;;;;3.47;56.80;101355.19;6247304;28;20473;-75
2021/04/27 02:30:43;;;;;;;3.42;1.13;;;;;;;3.46;56.67;101356.94;6247244;28;20049;-76
2021/04/27 02:33:45;;;;;;;3.70;1.23;;;;;;;3.52;56.61;101362.03;6247162;28;20042;-75
2021/04/27 02:36:46;;;;;;;4.00;1.13;;;;;;;3.37;57.76;101358.81;6247295;28;20084;-75
2021/04/27 02:39:47;;;;;;;3.95;1.40;;;;;;;3.33;57.40;101367.50;6246616;28;20118;-74
2021/04/27 02:42:50;;;;;;;3.28;1.23;;;;;;;3.25;57.43;101358.06;6246684;28;20053;-75
2021/04/27 02:45:52;;;;;;;6.53;1.30;;;;;;;3.22;57.82;101358.09;6246895;28;20456;-75
2021/04/27 02:48:53;;;;;;;2.33;1.27;;;;;;;3.13;58.16;101366.00;6247030;28;20132;-74
2021/04/27 02:51:53;;;;;;;5.18;0.90;;;;;;;3.09;57.70;101356.56;6246854;28;20061;-75
2021/04/27 02:54:54;;;;;;;8.88;1.27;;;;;;;3.07;58.03;101347.91;6246732;28;20136;-75
2021/04/27 02:57:56;;;;;;;10.10;1.50;;;;;;;3.04;59.55;101340.16;6246587;28;20056;-75
2021/04/27 03:00:57;;;;;;;2.63;1.20;;;;;;;3.05;59.70;101340.16;6247041;28;20422;-74
2021/04/27 03:03:58;;;;;;;2.40;1.15;;;;;;;3.03;60.01;101341.03;6246578;28;20049;-75
2021/04/27 03:06:59;;;;;;;3.83;1.30;;;;;;;2.98;59.76;101335.91;6246852;28;20049;-75
2021/04/27 03:09:59;;;;;;;6.50;1.30;;;;;;;2.82;58.85;101336.09;6246666;28;20045;-75
2021/04/27 03:13:02;;;;;;;3.95;0.82;;;;;;;2.73;59.77;101337.09;6246415;28;20429;-75
2021/04/27 03:16:03;;;;;;;2.45;1.05;;;;;;;2.71;59.91;101346.63;6253206;28;20050;-75
2021/04/27 03:19:04;;;;;;;2.10;1.10;;;;;;;2.71;60.97;101338.84;6248866;28;20056;-75
2021/04/27 03:22:05;;;;;;;2.45;1.15;;;;;;;2.65;61.29;101341.50;6246584;28;20521;-74
2021/04/27 03:25:08;;;;;;;3.38;1.50;;;;;;;2.56;61.76;101341.63;6246405;28;20057;-75
2021/04/27 03:28:09;;;;;;;1.92;1.05;;;;;;;2.53;61.07;101342.50;6246503;28;20050;-75
2021/04/27 03:31:10;;;;;;;2.30;1.02;;;;;;;2.49;60.53;101352.03;6246315;28;20406;-75
2021/04/27 03:34:11;;;;;;;4.43;1.30;;;;;;;2.46;60.67;101341.72;6246107;28;20085;-75
2021/04/27 03:37:12;;;;;;;1.73;1.10;;;;;;;2.41;61.48;101343.50;6246371;28;20088;-75
2021/04/27 03:40:13;;;;;;;5.50;1.23;;;;;;;2.29;62.45;101343.63;6246491;28;20081;-75
2021/04/27 03:43:15;;;;;;;4.85;1.30;;;;;;;2.18;63.07;101341.13;6246136;28;20049;-75
2021/04/27 03:46:16;;;;;;;2.75;1.40;;;;;;;2.17;62.36;101338.53;6246123;28;20057;-75
2021/04/27 03:49:17;;;;;;;2.97;1.15;;;;;;;2.15;62.27;101332.50;6246082;28;20057;-75
2021/04/27 03:52:18;;;;;;;7.38;1.50;;;;;;;2.20;63.23;101335.91;6245947;28;20081;-75
2021/04/27 03:55:19;;;;;;;1.98;1.23;;;;;;;2.16;62.23;101342.88;6256173;28;20045;-74
2021/04/27 03:58:20;;;;;;;3.17;1.17;;;;;;;2.06;63.13;101333.47;6283905;22;20065;-77
2021/04/27 04:01:21;;;;;;;4.32;1.17;;;;;;;2.13;63.50;101342.03;6253771;28;20061;-77
2021/04/27 04:04:23;;;;;;;3.53;1.40;;;;;;;2.11;63.15;101339.47;6267011;28;20045;-77
2021/04/27 04:07:23;;;;;;;5.35;1.30;;;;;;;2.04;63.68;101335.19;6272189;28;20053;-77
2021/04/27 04:10:25;;;;;;;26.50;2.10;;;;;;;2.10;64.01;101337.75;6252113;28;20045;-77
2021/04/27 04:13:27;;;;;;;12.45;1.80;;;;;;;2.12;63.96;101338.56;6253966;28;20048;-77
2021/04/27 04:16:29;;;;;;;2.60;1.20;;;;;;;2.22;65.23;101332.41;6292619;28;20063;-77
2021/04/27 04:19:30;;;;;;;4.50;1.40;;;;;;;2.15;63.62;101335.97;6301108;28;20048;-77
2021/04/27 04:22:31;;;;;;;2.58;1.08;;;;;;;2.23;64.17;101339.34;6300905;28;20053;-77
2021/04/27 04:25:32;;;;;;;5.22;1.70;;;;;;;2.27;64.19;101337.56;6297334;28;20514;-77
2021/04/27 04:28:33;;;;;;;4.25;1.10;;;;;;;2.23;62.71;101341.94;6262711;28;20505;-77
2021/04/27 04:31:34;;;;;;;2.65;1.20;;;;;;;2.22;63.07;101339.34;6262041;28;20055;-77
2021/04/27 04:34:35;;;;;;;4.07;1.60;;;;;;;2.26;62.63;101336.72;6262236;28;20042;-77
2021/04/27 04:37:36;;;;;;;5.45;1.35;;;;;;;2.37;62.58;101343.53;6261947;28;20061;-77
2021/04/27 04:40:37;;;;;;;5.43;1.35;;;;;;;2.44;62.14;101342.59;6252253;28;20049;-77
2021/04/27 04:43:39;;;;;;;3.55;1.48;;;;;;;2.50;62.61;101347.75;6252556;28;20053;-77
2021/04/27 04:46:40;;;;;;;4.07;1.02;;;;;;;2.46;62.63;101346.91;6252720;28;20049;-77
2021/04/27 04:49:41;;;;;;;2.38;1.23;;;;;;;2.39;62.21;101346.97;6253216;28;20079;-77
2021/04/27 04:52:42;;;;;;;5.65;1.67;;;;;;;2.44;63.96;101350.38;6252586;28;20132;-77
2021/04/27 04:55:43;;;;;;;5.07;2.10;;;;;;;2.47;63.09;101352.94;6250892;28;20049;-77
2021/04/27 04:58:45;;;;;;;4.25;1.40;;;;;;;2.39;62.35;101354.75;6250403;28;20056;-78
2021/04/27 05:01:46;;;;;;;3.50;1.30;;;;;;;2.41;63.64;101351.28;6250797;28;20056;-77
2021/04/27 05:04:47;;;;;;;4.22;1.33;;;;;;;2.51;63.72;101362.41;6250211;28;20049;-78
2021/04/27 05:07:56;;;;;;;17.33;2.20;;;;;;;2.58;64.07;101358.00;6250337;28;20049;-77
2021/04/27 05:10:57;;;;;;;9.63;1.30;;;;;;;2.69;62.84;101353.59;6260522;28;20049;-74
2021/04/27 05:13:59;;;;;;;22.45;2.05;;;;;;;2.76;60.96;101355.22;6258874;28;20042;-75
2021/04/27 05:17:00;;;;;;;14.15;2.50;;;;;;;2.85;60.75;101359.44;6251139;28;20046;-76
2021/04/27 05:20:03;;;;;;;4.03;1.73;;;;;;;2.86;61.29;101361.16;6248988;28;20053;-75
2021/04/27 05:23:04;;;;;;;3.58;1.42;;;;;;;2.93;60.34;101355.03;6249084;28;20049;-75
2021/04/27 05:26:07;;;;;;;1.45;0.90;;;;;;;2.90;60.89;101360.25;6251628;28;20049;-76
2021/04/27 05:29:09;;;;;;;3.88;1.35;;;;;;;3.05;60.64;101365.28;6250483;28;20140;-75
2021/04/27 05:32:11;;;;;;;3.33;1.35;;;;;;;2.97;61.85;101364.50;6249204;28;20075;-76
2021/04/27 05:35:13;;;;;;;3.28;1.30;;;;;;;3.05;61.17;101365.28;6251214;28;20042;-76
2021/04/27 05:38:14;;;;;;;3.95;1.40;;;;;;;3.08;61.58;101369.56;6270738;28;20063;-76
2021/04/27 05:41:14;;;;;;;4.88;1.67;;;;;;;3.12;60.99;101376.44;6284418;28;20040;-76
2021/04/27 05:44:16;;;;;;;10.82;1.38;;;;;;;3.18;61.44;101372.03;6289547;28;20048;-76
2021/04/27 05:47:17;;;;;;;4.88;1.95;;;;;;;3.35;59.17;101376.13;6298675;28;20045;-76
2021/04/27 05:50:18;;;;;;;2.80;1.50;;;;;;;3.33;59.44;101373.56;6294284;28;20079;-76
2021/04/27 05:53:19;;;;;;;8.27;1.88;;;;;;;3.37;59.68;101371.78;6289336;28;20051;-76
2021/04/27 05:56:20;;;;;;;5.47;2.20;;;;;;;3.39;59.43;101370.88;6297888;28;20106;-76
2021/04/27 05:59:22;;;;;;;5.78;1.63;;;;;;;3.48;59.38;101382.88;6297577;28;20052;-75
2021/04/27 06:02:22;;;;;;;6.80;1.88;;;;;;;3.53;58.61;101381.91;6297796;28;20056;-75
2021/04/27 06:05:23;;;;;;;8.82;1.85;;;;;;;3.54;58.98;101375.88;6297439;28;20263;-76
2021/04/27 06:08:24;;;;;;;42.35;3.28;;;;;;;3.67;59.92;101380.88;6291802;28;20461;-76
2021/04/27 06:11:25;;;;;;;3.40;1.60;;;;;;;3.72;58.41;101379.06;6288507;28;20512;-76
2021/04/27 06:14:27;;;;;;;5.32;1.35;;;;;;;3.66;59.37;101380.00;6297002;28;20133;-75
2021/04/27 06:17:27;;;;;;;3.97;1.55;;;;;;;3.79;58.52;101376.34;6296681;28;20079;-75
2021/04/27 06:20:28;;;;;;;9.52;1.90;;;;;;;3.80;58.50;101375.47;6297119;28;20052;-76
2021/04/27 06:23:29;;;;;;;9.88;2.47;;;;;;;3.86;57.64;101374.53;6297280;28;20642;-76
2021/04/27 06:26:30;;;;;;;5.35;1.98;;;;;;;4.00;57.75;101376.91;6296971;28;20048;-76
2021/04/27 06:29:32;;;;;;;4.88;1.67;;;;;;;4.05;58.54;101372.50;6297128;28;20464;-74
2021/04/27 06:32:33;;;;;;;8.05;2.70;;;;;;;4.08;60.01;101375.88;6282500;28;20045;-76
2021/04/27 06:35:34;;;;;;;16.83;2.08;;;;;;;4.16;58.92;101365.34;6252771;28;20528;-76
2021/04/27 06:38:35;;;;;;;8.23;1.90;;;;;;;4.27;59.25;101363.44;6254410;28;20049;-75
2021/04/27 06:41:36;;;;;;;8.98;1.90;;;;;;;4.35;57.18;101370.25;6258482;28;20142;-76
2021/04/27 06:44:39;;;;;;;10.77;2.10;;;;;;;4.44;57.30;101363.13;6271032;28;20041;-76
2021/04/27 06:47:40;;;;;;;6.13;1.75;;;;;;;4.51;57.33;101361.28;6271742;28;20045;-76
2021/04/27 06:50:42;;;;;;;6.03;1.90;;;;;;;4.62;57.13;101353.28;6271926;28;20049;-76
2021/04/27 06:53:43;;;;;;;18.20;5.22;;;;;;;4.70;57.43;101351.38;6271364;28;20052;-76
2021/04/27 06:56:44;;;;;;;6.03;2.13;;;;;;;4.74;56.69;101355.66;6273149;28;20406;-76
2021/04/27 06:59:46;;;;;;;7.20;1.67;;;;;;;4.96;56.05;101353.47;6273307;28;20105;-76
2021/04/27 07:02:46;;;;;;;27.17;2.50;;;;;;;5.08;55.79;101346.25;6272252;28;20060;-76
2021/04/27 07:05:47;;;;;;;4.70;1.70;;;;;;;5.20;55.06;101341.69;6272181;28;20513;-76
2021/04/27 07:08:48;;;;;;;43.95;3.58;;;;;;;5.37;53.30;101350.00;6280729;28;20075;-76
2021/04/27 07:11:49;;;;;;;4.53;1.60;;;;;;;5.49;53.82;101341.88;6280622;28;20052;-76
2021/04/27 07:14:51;;;;;;;7.03;1.88;;;;;;;5.54;54.53;101342.66;6287699;28;20045;-76
2021/04/27 07:17:52;;;;;;;11.18;2.20;;;;;;;5.70;53.50;101335.31;6296487;28;20056;-76
2021/04/27 07:20:53;;;;;;;3.55;2.35;;;;;;;5.84;52.35;101334.97;6288836;28;20049;-76
2021/04/27 07:23:54;;;;;;;4.07;1.55;;;;;;;6.04;52.24;101332.78;6255653;28;20426;-76
2021/04/27 07:26:55;;;;;;;8.02;1.67;;;;;;;6.07;50.24;101337.91;6266264;28;20140;-76
2021/04/27 07:29:57;;;;;;;5.15;1.40;;;;;;;6.16;50.59;101334.22;6266011;28;20091;-75
2021/04/27 07:32:58;;;;;;;8.55;1.70;;;;;;;6.22;50.67;101335.81;6251148;28;20603;-76
2021/04/27 07:35:59;;;;;;;6.95;1.45;;;;;;;6.33;51.11;101332.03;6251806;28;20421;-75
2021/04/27 07:39:00;;;;;;;4.57;1.73;;;;;;;6.40;50.31;101329.25;6265240;28;20045;-75
2021/04/27 07:42:01;;;;;;;6.55;1.33;;;;;;;6.51;46.57;101328.06;6275976;28;20049;-75
2021/04/27 07:45:04;;;;;;;4.05;1.67;;;;;;;6.51;47.62;101324.59;6275903;28;20049;-76
2021/04/27 07:48:07;;;;;;;2.63;1.42;;;;;;;6.61;49.15;101318.22;6275821;28;20049;-76
2021/04/27 07:51:08;;;;;;;5.78;1.63;;;;;;;6.68;48.24;101311.94;6275974;28;20052;-76
2021/04/27 07:54:09;;;;;;;6.95;1.50;;;;;;;6.84;46.64;101312.34;6275458;28;20048;-76
2021/04/27 07:57:10;;;;;;;9.23;1.83;;;;;;;6.98;43.43;101304.97;6252913;28;20490;-76
2021/04/27 08:00:14;;;;;;;2.80;1.67;;;;;;;6.90;46.28;101304.31;6251027;28;20088;-75
2021/04/27 08:03:14;;;;;;;4.13;1.60;;;;;;;7.03;45.07;101308.28;6250995;28;20053;-76
2021/04/27 08:06:15;;;;;;;3.65;1.35;;;;;;;7.06;44.83;101297.75;6250686;28;20510;-75
2021/04/27 08:09:16;;;;;;;3.53;1.30;;;;;;;7.26;43.98;101298.91;6250895;28;20401;-76
2021/04/27 08:12:17;;;;;;;7.05;1.40;;;;;;;7.33;44.25;101303.06;6250685;28;20133;-76
2021/04/27 08:15:21;;;;;;;3.00;1.30;;;;;;;7.48;43.95;101297.34;6250200;28;20073;-75
2021/04/27 08:18:22;;;;;;;11.77;1.98;;;;;;;7.69;42.83;101294.94;6250843;28;20053;-76
2021/04/27 08:21:24;;;;;;;2.25;1.00;;;;;;;7.78;42.32;101290.25;6250567;28;20509;-76
2021/04/27 08:24:25;;;;;;;13.45;1.63;;;;;;;7.83;40.06;101292.72;6250045;28;20048;-76
2021/04/27 08:27:25;;;;;;;6.00;2.22;;;;;;;7.84;42.97;101294.44;6250436;28;20046;-76
2021/04/27 08:30:27;;;;;;;6.40;1.15;;;;;;;8.05;41.01;101291.09;6266178;28;20091;-75
2021/04/27 08:33:29;;;;;;;17.38;1.88;;;;;;;8.10;41.27;101289.19;6273151;28;20052;-75
2021/04/27 08:36:29;;;;;;;4.78;1.30;;;;;;;8.12;41.10;101289.97;6274048;28;20060;-76
2021/04/27 08:39:30;;;;;;;38.55;2.67;;;;;;;8.24;39.26;101285.22;6273942;28;20052;-76
2021/04/27 08:42:33;;;;;;;9.40;1.60;;;;;;;8.38;38.79;101289.09;6275042;28;20096;-76
2021/04/27 08:45:34;;;;;;;3.47;1.33;;;;;;;8.39;38.90;101290.81;6274018;28;20505;-76
2021/04/27 08:48:35;;;;;;;23.25;2.42;;;;;;;8.53;38.08;101284.22;6274101;28;20049;-77
2021/04/27 08:51:37;;;;;;;23.40;2.72;;;;;;;8.68;38.65;101278.44;6274892;28;20053;-77
2021/04/27 08:54:38;;;;;;;100.07;7.10;;;;;;;8.73;38.24;101279.13;6273640;28;20414;-77
2021/04/27 08:57:39;;;;;;;71.43;4.35;;;;;;;8.58;37.62;101282.28;6275235;28;20053;-76
2021/04/27 09:00:42;;;;;;;23.30;2.53;;;;;;;8.57;38.00;101270.94;6275632;28;20053;-76
2021/04/27 09:03:45;;;;;;;16.50;1.48;;;;;;;8.78;38.57;101276.31;6274515;28;20118;-76
2021/04/27 09:07:04;;;;;;;3.63;1.17;;;;;;;8.92;36.96;101267.94;6274685;28;20045;-75
2021/04/27 09:10:14;;;;;;;12.15;2.00;;;;;;;8.95;36.65;101271.31;6274927;28;20056;-76
2021/04/27 09:13:16;;;;;;;72.22;4.93;;;;;;;8.96;37.48;101256.44;6274129;28;20048;-76
2021/04/27 09:16:26;;;;;;;82.03;4.47;;;;;;;8.97;38.65;101250.28;6274296;28;20435;-77
2021/04/27 09:19:33;;;;;;;13.23;1.85;;;;;;;8.93;37.15;101267.03;6274491;28;20045;-76
2021/04/27 09:22:34;;;;;;;24.80;1.80;;;;;;;8.91;38.46;101250.50;6273001;28;20421;-76
2021/04/27 09:25:35;;;;;;;9.35;1.77;;;;;;;8.84;37.07;101245.50;6268724;28;20060;-75
2021/04/27 09:28:38;;;;;;;8.75;1.40;;;;;;;8.87;37.95;101248.00;6263469;28;20493;-76
2021/04/27 09:31:41;;;;;;;12.70;2.22;;;;;;;9.09;38.47;101245.41;6253722;28;20519;-77
2021/04/27 09:34:42;;;;;;;10.60;1.80;;;;;;;9.03;37.88;101242.16;6248474;28;20048;-76
2021/04/27 09:38:05;;;;;;;3.83;1.75;;;;;;;9.06;38.35;101239.44;6254022;28;20052;-76
2021/04/27 09:41:06;;;;;;;267.90;15.25;;;;;;;9.20;39.05;101241.50;6261443;28;20095;-76
2021/04/27 09:44:27;;;;;;;9.80;1.88;;;;;;;9.40;37.49;101252.03;6260102;28;20047;-75
2021/04/27 09:47:32;;;;;;;4.82;1.45;;;;;;;9.57;36.09;101239.09;6264502;28;20107;-76
2021/04/27 09:50:33;;;;;;;7.05;1.65;;;;;;;9.55;37.94;101235.69;6270840;28;20066;-75
2021/04/27 09:53:40;;;;;;;9.10;1.73;;;;;;;9.87;36.22;101225.63;6268580;28;20048;-76
2021/04/27 09:56:46;;;;;;;32.10;2.30;;;;;;;9.97;36.95;101229.53;6279478;28;20055;-72
2021/04/27 09:59:47;;;;;;;3.53;1.38;;;;;;;9.84;37.04;101226.59;6309167;22;20527;-76
2021/04/27 10:02:49;;;;;;;2.97;1.52;;;;;;;9.75;37.37;101215.63;6295638;28;20048;-75
2021/04/27 10:05:50;;;;;;;4.65;1.70;;;;;;;9.93;35.76;101206.13;6296936;28;20515;-75
2021/04/27 10:08:51;;;;;;;7.18;1.50;;;;;;;10.03;35.72;101203.00;6297072;28;20044;-74
2021/04/27 10:11:53;;;;;;;6.30;1.80;;;;;;;10.08;36.35;101203.69;6296841;28;20044;-75
2021/04/27 10:14:54;;;;;;;11.15;1.85;;;;;;;10.13;35.55;101200.84;6296410;28;20047;-74
2021/04/27 10:17:58;;;;;;;5.60;1.73;;;;;;;10.36;35.93;101192.84;6296667;28;20104;-74
2021/04/27 10:20:59;;;;;;;4.22;1.80;;;;;;;10.43;36.11;101187.28;6296404;28;20126;-75
2021/04/27 10:24:03;;;;;;;7.63;1.95;;;;;;;10.58;36.16;101184.81;6296485;28;20488;-75
2021/04/27 10:27:05;;;;;;;2.90;1.58;;;;;;;10.61;36.36;101187.28;6296412;28;20061;-75
2021/04/27 10:30:28;;;;;;;9.60;2.00;;;;;;;10.88;34.90;101172.00;6295261;28;20048;-75
2021/04/27 10:33:29;;;;;;;3.97;2.10;;;;;;;10.83;35.90;101171.38;6295530;28;20056;-76
2021/04/27 10:36:31;;;;;;;13.05;1.80;;;;;;;10.97;36.38;101161.97;6296195;28;20470;-76
2021/04/27 10:39:37;;;;;;;7.78;1.98;;;;;;;11.04;34.79;101160.75;6295967;28;20134;-76
2021/04/27 10:42:38;;;;;;;4.75;1.70;;;;;;;11.04;33.43;101158.13;6296700;28;20684;-76
2021/04/27 10:45:39;;;;;;;11.93;2.33;;;;;;;11.09;33.89;101150.88;6289025;28;20125;-75
2021/04/27 10:48:44;;;;;;;3.97;1.70;;;;;;;11.27;34.28;101144.69;6284047;28;20044;-75
2021/04/27 10:51:46;;;;;;;4.85;1.60;;;;;;;11.52;33.08;101146.06;6282090;28;20397;-75
2021/04/27 10:54:48;;;;;;;4.90;1.70;;;;;;;11.43;34.26;101132.44;6283618;28;20045;-75
2021/04/27 10:57:49;;;;;;;26.55;3.25;;;;;;;11.47;34.68;101127.88;6284817;28;20052;-75
2021/04/27 11:00:50;;;;;;;8.43;2.03;;;;;;;11.74;34.08;101130.88;6284708;28;20044;-76
2021/04/27 11:03:54;;;;;;;721.33;41.67;;;;;;;11.75;34.52;101127.31;6289289;28;20051;-75
2021/04/27 11:07:12;;;;;;;4.53;2.42;;;;;;;11.94;33.15;101119.31;6291573;28;20041;-75
2021/04/27 11:10:32;;;;;;;41.08;3.13;;;;;;;12.15;34.30;101122.59;6270844;28;20475;-76
2021/04/27 11:13:37;;;;;;;3.25;1.80;;;;;;;12.28;32.18;101120.16;6271110;28;20253;-76
2021/04/27 11:16:40;;;;;;;7.55;2.08;;;;;;;12.42;33.04;101109.72;6271284;28;20045;-76
2021/04/27 11:19:43;;;;;;;6.32;1.98;;;;;;;12.59;33.13;101112.28;6271109;28;20053;-76
2021/04/27 11:22:51;;;;;;;3.45;1.90;;;;;;;12.74;31.03;101113.19;6271362;28;20045;-76
2021/04/27 11:25:52;;;;;;;5.47;1.95;;;;;;;13.04;31.66;101105.31;6271018;28;20072;-76
2021/04/27 11:28:55;;;;;;;14.73;2.40;;;;;;;13.29;31.98;101096.84;6274173;28;20052;-77
2021/04/27 11:32:05;;;;;;;13.05;2.33;;;;;;;13.49;31.73;101100.94;6295769;28;20048;-76
2021/04/27 11:35:14;;;;;;;7.88;2.30;;;;;;;13.69;31.19;101094.47;6295485;28;20094;-78
2021/04/27 11:38:15;;;;;;;3.85;1.75;;;;;;;13.89;30.55;101086.16;6295794;28;20171;-77
2021/04/27 11:41:16;;;;;;;37.92;3.50;;;;;;;14.16;30.69;101091.50;6295648;28;20140;-77
2021/04/27 11:44:19;;;;;;;3.10;1.60;;;;;;;14.17;29.24;101084.41;6294992;28;20048;-77
2021/04/27 11:47:20;;;;;;;3.00;2.17;;;;;;;14.35;30.29;101069.19;6295855;28;20053;-76
2021/04/27 11:50:23;;;;;;;18.35;2.63;;;;;;;14.36;29.49;101068.28;6295406;28;20431;-76
2021/04/27 11:53:25;;;;;;;8.52;1.83;;;;;;;14.66;28.39;101066.28;6295068;28;20110;-76
2021/04/27 11:56:26;;;;;;;1712.47;114.75;;;;;;;14.78;29.02;101079.69;6295564;28;20130;-75
2021/04/27 11:59:27;;;;;;;14.77;2.78;;;;;;;15.08;28.78;101074.13;6295731;28;20056;-75
2021/04/27 12:02:30;;;;;;;13.75;2.20;;;;;;;15.09;28.53;101068.75;6295261;28;20052;-75
2021/04/27 12:05:34;;;;;;;4.95;1.70;;;;;;;15.17;28.19;101055.88;6294834;28;20063;-74
2021/04/27 12:08:37;;;;;;;7.22;1.65;;;;;;;15.29;28.41;101050.69;6295548;28;20519;-75
2021/04/27 12:11:38;;;;;;;13.80;2.38;;;;;;;15.57;30.62;101042.53;6295152;28;20508;-75
2021/04/27 12:14:48;;;;;;;250.57;15.90;;;;;;;15.69;27.19;101048.81;6295067;28;20052;-75
2021/04/27 12:17:49;;;;;;;12.32;2.38;;;;;;;15.81;28.64;101050.59;6299949;28;20135;-75
2021/04/27 12:20:51;;;;;;;4.70;2.30;;;;;;;15.84;28.34;101046.88;6295378;28;20119;-75
2021/04/27 12:24:04;;;;;;;8.05;1.70;;;;;;;15.85;28.80;101045.91;6298551;28;20044;-74
2021/04/27 12:27:07;;;;;;;6.50;2.03;;;;;;;15.91;27.33;101046.34;6299938;28;20056;-74
2021/04/27 12:30:11;;;;;;;12.93;3.40;;;;;;;15.81;26.78;101040.00;6299223;28;20098;-75
2021/04/27 12:33:15;;;;;;;15.38;2.08;;;;;;;16.28;27.07;101030.44;6275232;28;20507;-73
2021/04/27 12:36:19;;;;;;;6.95;2.40;;;;;;;16.34;26.26;101029.13;6274644;28;20393;-74
2021/04/27 12:39:31;;;;;;;11.20;2.13;;;;;;;16.44;25.14;101028.38;6274833;28;20053;-73
2021/04/27 12:42:32;;;;;;;5.53;2.17;;;;;;;16.62;25.92;101020.88;6274374;28;20629;-74
2021/04/27 12:45:48;;;;;;;13.88;3.33;;;;;;;16.53;25.01;101026.81;6274103;28;20102;-73
2021/04/27 12:48:48;;;;;;;2.83;1.70;;;;;;;16.51;24.64;101017.31;6274475;28;20048;-73
2021/04/27 12:51:57;;;;;;;6.68;2.10;;;;;;;16.71;27.76;101019.31;6274171;28;20135;-74
2021/04/27 12:55:01;;;;;;;11.35;1.88;;;;;;;16.44;26.69;101009.81;6273642;28;20045;-74
2021/04/27 12:58:10;;;;;;;4.53;1.92;;;;;;;16.62;25.43;100999.63;6274399;28;20084;-73
2021/04/27 13:01:18;;;;;;;3.47;1.60;;;;;;;16.66;26.62;101001.06;6273688;28;20057;-73
2021/04/27 13:04:19;;;;;;;5.85;2.42;;;;;;;16.83;26.30;101002.50;6273660;28;20283;-73
2021/04/27 13:07:22;;;;;;;76.13;4.95;;;;;;;16.91;28.21;100992.16;6273916;28;20049;-73
2021/04/27 13:10:35;;;;;;;13.10;2.38;;;;;;;17.10;27.12;100991.59;6273945;28;20051;-74
2021/04/27 13:13:36;;;;;;;8.07;1.80;;;;;;;17.16;27.39;100976.97;6272851;28;20405;-74
2021/04/27 13:16:37;;;;;;;17.15;2.53;;;;;;;17.20;25.70;100981.94;6274229;28;20131;-74
2021/04/27 13:19:45;;;;;;;3.60;1.77;;;;;;;17.07;24.99;100975.03;6273568;28;20045;-74
2021/04/27 13:22:50;;;;;;;21.75;2.60;;;;;;;17.50;24.49;100984.03;6273845;28;20049;-74
2021/04/27 13:26:02;;;;;;;4.68;2.15;;;;;;;17.03;24.47;100978.91;6273532;28;20049;-73
2021/04/27 13:29:03;;;;;;;6.18;2.22;;;;;;;17.08;24.62;100968.75;6273750;28;20045;-74
2021/04/27 13:32:12;;;;;;;10.13;2.15;;;;;;;17.16;25.63;100958.41;6273444;28;20508;-74
2021/04/27 13:35:19;;;;;;;298.65;18.30;;;;;;;17.36;26.12;100956.84;6273366;28;20045;-74
2021/04/27 13:38:23;;;;;;;13.50;2.50;;;;;;;17.68;23.65;100947.19;6273200;28;20048;-74
2021/04/27 13:41:26;;;;;;;5.47;2.25;;;;;;;17.54;24.70;100947.44;6273208;28;20402;-74
2021/04/27 13:44:27;;;;;;;5.13;1.83;;;;;;;17.57;25.30;100941.00;6272954;28;20053;-74
2021/04/27 13:47:28;;;;;;;3.65;2.00;;;;;;;17.67;25.21;100936.69;6273097;28;20056;-74
2021/04/27 13:50:29;;;;;;;4.78;2.20;;;;;;;17.80;24.34;100939.19;6272802;28;20416;-74
2021/04/27 13:53:31;;;;;;;9.80;2.40;;;;;;;17.53;23.60;100929.78;6272656;28;20076;-74
2021/04/27 13:56:32;;;;;;;7.30;2.70;;;;;;;17.53;25.62;100926.28;6273058;28;20190;-74
2021/04/27 13:59:33;;;;;;;7.00;2.55;;;;;;;17.65;24.76;100927.97;6288625;28;20080;-74
2021/04/27 14:02:35;;;;;;;18.17;3.45;;;;;;;17.99;25.11;100918.16;6297385;28;20090;-74
2021/04/27 14:05:37;;;;;;;6.63;3.22;;;;;;;17.77;23.58;100910.22;6296849;28;20542;-74
2021/04/27 14:08:39;;;;;;;4.85;2.20;;;;;;;18.03;24.67;100914.25;6297590;28;20056;-74
2021/04/27 14:11:40;;;;;;;17.38;2.70;;;;;;;17.73;24.74;100904.28;6297070;28;20078;-74
2021/04/27 14:14:41;;;;;;;9.00;2.25;;;;;;;17.96;22.65;100905.94;6296747;28;20414;-74